createdAt,value
2022-08-22T00:01:56.470Z,6.67
2022-08-22T00:02:47.240Z,5.60
2022-08-22T00:02:47.465Z,6.23
2022-08-22T00:04:29.051Z,7.47
2022-08-22T00:07:18.828Z,6.90
2022-08-22T00:09:57.558Z,6.90
2022-08-22T00:12:28.687Z,8.30
2022-08-22T00:15:01.739Z,7.57
2022-08-22T00:17:31.655Z,7.60
2022-08-22T00:20:18.407Z,6.53
2022-08-22T00:22:44.916Z,8.10
2022-08-22T00:25:43.952Z,6.73
2022-08-22T00:28:19.013Z,6.83
2022-08-22T00:30:58.113Z,6.90
2022-08-22T00:33:32.620Z,6.20
2022-08-22T00:36:19.360Z,7.40
2022-08-22T00:38:50.058Z,5.90
2022-08-22T00:41:22.612Z,6.93
2022-08-22T00:43:49.309Z,6.80
2022-08-22T00:46:34.683Z,7.43
2022-08-22T00:49:01.198Z,7.03
2022-08-22T00:51:40.194Z,6.70
2022-08-22T00:54:25.711Z,7.20
2022-08-22T00:56:52.268Z,7.00
2022-08-22T00:59:32.743Z,7.17
2022-08-22T01:02:11.607Z,6.80
2022-08-22T01:05:00.146Z,7.47
2022-08-22T01:07:46.900Z,6.80
2022-08-22T01:10:20.189Z,6.47
2022-08-22T01:12:49.818Z,6.83
2022-08-22T01:15:21.346Z,6.17
2022-08-22T01:17:57.257Z,6.77
2022-08-22T01:20:23.977Z,6.33
2022-08-22T01:23:09.337Z,6.20
2022-08-22T01:25:58.873Z,6.47
2022-08-22T01:28:44.216Z,6.13
2022-08-22T01:31:21.807Z,5.60
2022-08-22T01:34:12.860Z,6.10
2022-08-22T01:37:04.465Z,6.60
2022-08-22T01:39:49.941Z,5.27
2022-08-22T01:42:16.637Z,6.40
2022-08-22T01:45:03.409Z,6.33
2022-08-22T01:47:37.383Z,5.90
2022-08-22T01:50:20.872Z,6.37
2022-08-22T01:52:57.754Z,7.37
2022-08-22T01:55:33.587Z,7.00
2022-08-22T01:58:01.917Z,6.40
2022-08-22T02:00:34.734Z,6.70
2022-08-22T02:03:20.970Z,7.00
2022-08-22T02:05:51.595Z,6.90
2022-08-22T02:08:37.805Z,7.10
2022-08-22T02:11:10.473Z,6.73
2022-08-22T02:13:49.282Z,7.73
2022-08-22T02:16:31.062Z,7.10
2022-08-22T02:19:16.051Z,6.03
2022-08-22T02:21:42.568Z,5.90
2022-08-22T02:24:24.611Z,6.90
2022-08-22T02:26:51.080Z,5.90
2022-08-22T02:29:21.174Z,7.03
2022-08-22T02:32:01.393Z,6.80
2022-08-22T02:34:43.656Z,6.30
2022-08-22T02:37:17.036Z,5.93
2022-08-22T02:39:46.615Z,6.90
2022-08-22T02:42:13.181Z,6.27
2022-08-22T02:44:41.397Z,6.17
2022-08-22T02:47:27.906Z,7.60
2022-08-22T02:49:54.423Z,6.53
2022-08-22T02:52:28.008Z,5.77
2022-08-22T02:54:59.632Z,6.17
2022-08-22T02:57:31.624Z,5.40
2022-08-22T03:00:31.658Z,6.43
2022-08-22T03:02:59.378Z,6.30
2022-08-22T03:05:28.083Z,6.13
2022-08-22T03:08:00.801Z,5.67
2022-08-22T03:10:29.235Z,6.37
2022-08-22T03:12:57.550Z,5.40
2022-08-22T03:15:24.415Z,5.60
2022-08-22T03:17:54.061Z,6.03
2022-08-22T03:20:35.986Z,6.20
2022-08-22T03:23:07.358Z,5.83
2022-08-22T03:25:37.467Z,5.90
2022-08-22T03:28:10.237Z,5.40
2022-08-22T03:30:45.254Z,6.30
2022-08-22T03:33:17.137Z,5.73
2022-08-22T03:35:46.724Z,6.73
2022-08-22T03:38:26.191Z,5.10
2022-08-22T03:41:01.203Z,6.80
2022-08-22T03:43:37.931Z,6.07
2022-08-22T03:46:07.516Z,5.77
2022-08-22T03:48:45.463Z,6.80
2022-08-22T03:51:19.571Z,5.80
2022-08-22T03:53:46.066Z,5.90
2022-08-22T03:56:12.520Z,5.40
2022-08-22T03:58:38.985Z,6.03
2022-08-22T04:01:08.585Z,5.93
2022-08-22T04:03:56.778Z,6.63
2022-08-22T04:06:41.827Z,5.80
2022-08-22T04:09:32.122Z,6.10
2022-08-22T04:12:14.504Z,5.70
2022-08-22T04:14:59.793Z,6.63
2022-08-22T04:17:45.572Z,5.47
2022-08-22T04:20:16.792Z,5.60
2022-08-22T04:22:46.764Z,5.83
2022-08-22T04:25:25.588Z,6.20
2022-08-22T04:28:15.467Z,5.83
2022-08-22T04:31:00.954Z,6.60
2022-08-22T04:33:35.106Z,5.90
2022-08-22T04:36:21.892Z,6.27
2022-08-22T04:38:51.712Z,5.13
2022-08-22T04:41:20.461Z,5.83
2022-08-22T04:43:56.691Z,6.60
2022-08-22T04:49:13.023Z,6.77
2022-08-22T04:51:48.733Z,6.40
2022-08-22T04:54:38.272Z,6.50
2022-08-22T04:59:57.801Z,5.77
2022-08-22T05:05:14.842Z,5.80
2022-08-22T05:07:50.041Z,5.80
2022-08-22T05:10:30.476Z,5.97
2022-08-22T05:13:08.761Z,6.60
2022-08-22T05:15:45.831Z,5.90
2022-08-22T05:18:29.574Z,5.43
2022-08-22T05:20:59.750Z,4.77
2022-08-22T05:23:39.244Z,6.50
2022-08-22T05:28:53.061Z,5.73
2022-08-22T05:31:30.447Z,6.10
2022-08-22T05:34:05.399Z,5.67
2022-08-22T05:39:20.498Z,5.93
2022-08-22T05:41:48.469Z,5.10
2022-08-22T05:44:30.950Z,6.60
2022-08-22T05:46:58.060Z,5.77
2022-08-22T05:50:07.502Z,6.80
2022-08-22T05:52:40.327Z,6.10
2022-08-22T05:55:07.286Z,7.30
2022-08-22T05:57:38.502Z,7.07
2022-08-22T06:00:15.035Z,6.67
2022-08-22T06:02:51.717Z,8.80
2022-08-22T06:05:22.141Z,6.63
2022-08-22T06:07:50.205Z,6.80
2022-08-22T06:10:36.150Z,7.70
2022-08-22T06:13:11.563Z,6.83
2022-08-22T06:15:47.282Z,7.30
2022-08-22T06:18:18.983Z,7.00
2022-08-22T06:21:12.030Z,6.73
2022-08-22T06:23:41.845Z,7.20
2022-08-22T06:26:20.535Z,7.90
2022-08-22T06:28:55.308Z,7.03
2022-08-22T06:31:39.048Z,6.57
2022-08-22T06:34:06.647Z,6.40
2022-08-22T06:36:40.295Z,7.60
2022-08-22T06:39:23.105Z,6.43
2022-08-22T06:42:11.167Z,6.70
2022-08-22T06:50:14.054Z,7.10
2022-08-22T06:52:52.437Z,7.27
2022-08-22T06:55:23.676Z,6.60
2022-08-22T07:03:45.090Z,7.20
2022-08-22T07:06:17.666Z,7.50
2022-08-22T07:08:54.014Z,7.40
2022-08-22T07:11:44.517Z,7.70
2022-08-22T07:14:14.742Z,6.90
2022-08-22T07:16:54.173Z,7.73
2022-08-22T07:30:31.794Z,7.10
2022-08-22T07:33:01.494Z,8.10
2022-08-22T07:35:58.449Z,7.60
2022-08-22T07:38:40.768Z,8.30
2022-08-22T07:58:08.087Z,6.90
2022-08-22T08:06:00.566Z,6.37
2022-08-22T08:14:05.565Z,5.50
2022-08-22T08:16:53.739Z,5.50
2022-08-22T08:22:03.140Z,3.20
2022-08-22T08:27:41.799Z,3.83
2022-08-22T08:30:20.731Z,3.23
2022-08-22T08:33:25.674Z,3.00
2022-08-22T08:41:41.932Z,4.10
2022-08-22T08:44:28.997Z,4.00
2022-08-22T08:47:07.256Z,3.07
2022-08-22T08:49:35.517Z,2.57
2022-08-22T08:52:28.448Z,2.97
2022-08-22T08:55:02.514Z,2.73
2022-08-22T08:57:56.994Z,2.20
2022-08-22T09:00:29.183Z,2.07
2022-08-22T09:03:18.333Z,2.53
2022-08-22T09:05:56.034Z,2.40
2022-08-22T09:11:29.852Z,2.47
2022-08-22T09:14:26.254Z,2.47
2022-08-22T09:20:23.503Z,3.07
2022-08-22T09:23:18.467Z,2.90
2022-08-22T09:25:51.634Z,2.90
2022-08-22T09:34:11.646Z,2.93
2022-08-22T09:37:09.305Z,2.57
2022-08-22T09:45:47.945Z,2.20
2022-08-22T09:48:38.725Z,2.60
2022-08-22T09:51:53.012Z,2.50
2022-08-22T09:54:48.451Z,2.63
2022-08-22T10:00:28.997Z,2.47
2022-08-22T10:03:23.848Z,2.50
2022-08-22T10:06:06.540Z,2.20
2022-08-22T10:11:59.635Z,2.80
2022-08-22T10:14:50.507Z,2.50
2022-08-22T10:17:35.030Z,2.53
2022-08-22T10:20:25.624Z,2.67
2022-08-22T10:25:54.610Z,2.33
2022-08-22T10:40:18.591Z,1.97
2022-08-22T10:42:51.478Z,2.37
2022-08-22T10:45:35.500Z,2.83
2022-08-22T10:48:08.893Z,2.50
2022-08-22T10:50:45.959Z,2.20
2022-08-22T10:53:30.903Z,2.83
2022-08-22T10:58:46.139Z,2.00
2022-08-22T11:01:37.886Z,2.07
2022-08-22T11:04:04.444Z,2.70
2022-08-22T11:06:54.417Z,2.70
2022-08-22T11:09:22.132Z,2.23
2022-08-22T11:11:56.129Z,2.30
2022-08-22T11:14:23.716Z,2.40
2022-08-22T11:17:23.582Z,2.73
2022-08-22T11:23:02.995Z,1.97
2022-08-22T11:25:53.667Z,2.73
2022-08-22T11:28:52.176Z,2.60
2022-08-22T11:34:48.414Z,2.70
2022-08-22T11:37:43.649Z,2.37
2022-08-22T11:40:20.200Z,2.87
2022-08-22T11:42:49.563Z,2.83
2022-08-22T11:45:20.150Z,2.70
2022-08-22T11:48:16.708Z,2.20
2022-08-22T11:50:49.990Z,2.90
2022-08-22T11:53:35.516Z,1.90
2022-08-22T11:56:17.818Z,2.10
2022-08-22T11:58:46.031Z,2.30
2022-08-22T12:04:03.431Z,2.73
2022-08-22T12:06:40.502Z,1.90
2022-08-22T12:09:18.041Z,2.27
2022-08-22T12:12:00.426Z,2.20
2022-08-22T12:14:31.365Z,2.50
2022-08-22T12:17:22.805Z,2.40
2022-08-22T12:20:17.429Z,2.60
2022-08-22T12:22:50.087Z,2.53
2022-08-22T12:25:26.613Z,2.27
2022-08-22T12:28:02.413Z,3.10
2022-08-22T12:30:32.636Z,2.67
2022-08-22T12:33:07.322Z,2.20
2022-08-22T12:35:51.484Z,2.70
2022-08-22T12:38:46.693Z,2.43
2022-08-22T12:41:13.289Z,2.53
2022-08-22T12:44:00.078Z,2.83
2022-08-22T12:46:46.793Z,2.30
2022-08-22T12:49:14.127Z,3.03
2022-08-22T12:52:04.236Z,2.53
2022-08-22T12:54:31.147Z,2.00
2022-08-22T12:57:01.612Z,2.43
2022-08-22T12:59:32.523Z,2.40
2022-08-22T13:02:11.498Z,2.03
2022-08-22T13:04:44.958Z,2.80
2022-08-22T13:07:30.518Z,2.47
2022-08-22T13:10:17.508Z,2.73
2022-08-22T13:12:46.345Z,2.80
2022-08-22T13:15:25.882Z,2.80
2022-08-22T13:17:52.802Z,2.33
2022-08-22T13:20:26.688Z,2.60
2022-08-22T13:22:54.490Z,2.70
2022-08-22T13:25:26.018Z,2.33
2022-08-22T13:27:56.016Z,2.30
2022-08-22T13:30:34.421Z,2.57
2022-08-22T13:33:08.514Z,2.73
2022-08-22T13:35:41.439Z,2.80
2022-08-22T13:38:26.199Z,3.13
2022-08-22T13:40:54.065Z,2.47
2022-08-22T13:43:40.830Z,2.50
2022-08-22T13:46:11.027Z,2.80
2022-08-22T13:48:46.757Z,2.40
2022-08-22T13:51:21.317Z,2.60
2022-08-22T13:54:00.751Z,3.00
2022-08-22T13:56:33.238Z,2.37
2022-08-22T13:59:01.807Z,2.97
2022-08-22T14:01:34.718Z,2.13
2022-08-22T14:04:30.925Z,1.77
2022-08-22T14:07:04.472Z,2.23
2022-08-22T14:09:38.043Z,2.13
2022-08-22T14:12:04.785Z,2.23
2022-08-22T14:14:33.939Z,2.00
2022-08-22T14:17:01.834Z,2.53
2022-08-22T14:19:38.262Z,2.20
2022-08-22T14:22:31.839Z,2.20
2022-08-22T14:25:01.440Z,2.07
2022-08-22T14:27:31.092Z,2.30
2022-08-22T14:30:04.317Z,2.63
2022-08-22T14:32:41.853Z,2.93
2022-08-22T14:35:17.006Z,1.80
2022-08-22T14:37:55.129Z,2.20
2022-08-22T14:40:24.331Z,2.70
2022-08-22T14:42:58.421Z,2.50
2022-08-22T14:45:27.447Z,2.40
2022-08-22T14:48:30.126Z,2.30
2022-08-22T14:50:56.006Z,3.00
2022-08-22T14:53:30.024Z,2.70
2022-08-22T14:55:56.501Z,2.33
2022-08-22T14:58:27.623Z,2.80
2022-08-22T15:00:56.023Z,2.10
2022-08-22T15:03:28.809Z,3.30
2022-08-22T15:05:58.166Z,3.00
2022-08-22T15:08:32.633Z,3.00
2022-08-22T15:11:14.053Z,2.77
2022-08-22T15:13:43.156Z,2.63
2022-08-22T15:16:15.352Z,2.53
2022-08-22T15:18:51.773Z,2.67
2022-08-22T15:21:24.816Z,2.37
2022-08-22T15:23:53.255Z,2.70
2022-08-22T15:26:28.207Z,2.70
2022-08-22T15:29:02.861Z,2.83
2022-08-22T15:31:31.411Z,2.90
2022-08-22T15:34:05.895Z,3.47
2022-08-22T15:36:32.437Z,2.67
2022-08-22T15:39:19.641Z,2.90
2022-08-22T15:41:49.320Z,2.80
2022-08-22T15:44:31.004Z,2.30
2022-08-22T15:46:59.692Z,2.50
2022-08-22T15:49:31.704Z,2.60
2022-08-22T15:52:01.244Z,2.67
2022-08-22T15:54:36.861Z,3.40
2022-08-22T15:57:10.354Z,2.77
2022-08-22T15:59:53.982Z,2.77
2022-08-22T16:02:42.193Z,2.83
2022-08-22T16:05:08.657Z,2.50
2022-08-22T16:07:35.395Z,2.80
2022-08-22T16:10:04.859Z,2.50
2022-08-22T16:12:45.949Z,2.57
2022-08-22T16:15:35.411Z,2.57
2022-08-22T16:18:01.964Z,2.67
2022-08-22T16:20:28.443Z,3.60
2022-08-22T16:22:58.078Z,2.23
2022-08-22T16:25:43.459Z,3.00
2022-08-22T16:28:54.690Z,2.90
2022-08-22T16:31:19.851Z,3.03
2022-08-22T16:33:46.703Z,3.30
2022-08-22T16:36:14.532Z,2.97
2022-08-22T16:38:43.127Z,2.80
2022-08-22T16:41:28.408Z,3.30
2022-08-22T16:44:13.906Z,2.83
2022-08-22T16:46:44.020Z,2.30
2022-08-22T16:49:11.163Z,2.80
2022-08-22T16:51:56.282Z,3.60
2022-08-22T16:54:41.597Z,3.33
2022-08-22T16:57:08.129Z,3.50
2022-08-22T16:59:41.087Z,3.30
2022-08-22T17:02:18.410Z,3.00
2022-08-22T17:04:51.147Z,3.57
2022-08-22T17:07:35.611Z,3.13
2022-08-22T17:10:11.650Z,3.70
2022-08-22T17:12:38.758Z,3.37
2022-08-22T17:15:08.065Z,3.50
2022-08-22T17:17:34.566Z,2.80
2022-08-22T17:20:13.363Z,2.80
2022-08-22T17:23:00.187Z,2.73
2022-08-22T17:25:36.117Z,2.93
2022-08-22T17:28:25.899Z,2.80
2022-08-22T17:31:01.411Z,2.97
2022-08-22T17:33:30.975Z,2.90
2022-08-22T17:36:06.650Z,2.70
2022-08-22T17:39:02.342Z,3.37
2022-08-22T17:41:31.967Z,3.00
2022-08-22T17:44:16.875Z,3.07
2022-08-22T17:46:50.821Z,2.70
2022-08-22T17:49:17.409Z,2.97
2022-08-22T17:51:49.989Z,3.00
2022-08-22T17:54:33.081Z,2.70
2022-08-22T17:57:19.847Z,3.00
2022-08-22T17:59:46.355Z,3.70
2022-08-22T18:02:22.240Z,3.33
2022-08-22T18:05:00.249Z,3.20
2022-08-22T18:07:38.865Z,3.47
2022-08-22T18:10:21.833Z,2.77
2022-08-22T18:13:07.185Z,3.80
2022-08-22T18:15:33.955Z,3.13
2022-08-22T18:18:19.441Z,3.20
2022-08-22T18:21:00.920Z,3.00
2022-08-22T18:23:35.463Z,3.00
2022-08-22T18:26:14.381Z,3.00
2022-08-22T18:28:45.033Z,2.70
2022-08-22T18:31:20.961Z,3.00
2022-08-22T18:33:55.492Z,2.80
2022-08-22T18:36:30.842Z,3.07
2022-08-22T18:39:03.346Z,2.30
2022-08-22T18:41:39.018Z,2.50
2022-08-22T18:44:12.902Z,3.10
2022-08-22T18:46:39.852Z,2.80
2022-08-22T18:49:36.051Z,3.00
2022-08-22T18:52:05.830Z,2.30
2022-08-22T18:54:35.368Z,3.17
2022-08-22T18:57:01.827Z,3.20
2022-08-22T18:59:34.363Z,2.97
2022-08-22T19:02:10.006Z,2.67
2022-08-22T19:04:55.693Z,2.37
2022-08-22T19:07:42.438Z,2.80
2022-08-22T19:10:27.529Z,3.10
2022-08-22T19:12:59.895Z,2.67
2022-08-22T19:15:32.940Z,3.00
2022-08-22T19:18:02.165Z,3.57
2022-08-22T19:20:49.468Z,3.43
2022-08-22T19:23:35.798Z,3.10
2022-08-22T19:26:24.004Z,3.80
2022-08-22T19:28:51.360Z,3.63
2022-08-22T19:31:44.268Z,3.27
2022-08-22T19:34:13.899Z,3.30
2022-08-22T19:36:40.906Z,3.20
2022-08-22T19:39:09.217Z,3.60
2022-08-22T19:41:58.074Z,4.13
2022-08-22T19:44:32.871Z,4.43
2022-08-22T19:47:02.504Z,3.70
2022-08-22T19:49:38.613Z,4.73
2022-08-22T19:52:08.233Z,5.23
2022-08-22T19:54:41.416Z,5.37
2022-08-22T19:57:16.718Z,5.83
2022-08-22T20:00:00.204Z,5.10
2022-08-22T20:02:26.927Z,4.60
2022-08-22T20:05:14.300Z,6.63
2022-08-22T20:07:56.247Z,4.63
2022-08-22T20:10:28.120Z,4.70
2022-08-22T20:13:18.405Z,5.10
2022-08-22T20:16:03.825Z,6.00
2022-08-22T20:19:07.638Z,5.07
2022-08-22T20:21:41.177Z,5.80
2022-08-22T20:24:10.082Z,4.90
2022-08-22T20:26:51.952Z,5.17
2022-08-22T20:29:35.162Z,6.40
2022-08-22T20:32:03.654Z,5.03
2022-08-22T20:34:32.220Z,4.50
2022-08-22T20:37:23.629Z,4.10
2022-08-22T20:40:04.964Z,4.80
2022-08-22T20:42:35.460Z,4.63
2022-08-22T20:45:12.314Z,5.10
2022-08-22T20:47:41.759Z,5.90
2022-08-22T20:50:11.912Z,5.63
2022-08-22T20:52:51.952Z,5.80
2022-08-22T20:55:30.520Z,6.10
2022-08-22T20:58:00.386Z,5.00
2022-08-22T21:00:32.110Z,5.40
2022-08-22T21:02:58.819Z,4.97
2022-08-22T21:05:31.656Z,4.90
2022-08-22T21:08:01.752Z,4.97
2022-08-22T21:10:48.029Z,5.83
2022-08-22T21:13:29.840Z,5.67
2022-08-22T21:15:59.921Z,4.67
2022-08-22T21:18:29.547Z,4.47
2022-08-22T21:21:07.121Z,5.37
2022-08-22T21:23:40.967Z,4.73
2022-08-22T21:26:08.788Z,3.90
2022-08-22T21:28:54.268Z,4.50
2022-08-22T21:31:21.975Z,3.70
2022-08-22T21:33:49.368Z,4.70
2022-08-22T21:36:20.500Z,5.20
2022-08-22T21:38:52.621Z,3.97
2022-08-22T21:41:30.503Z,4.50
2022-08-22T21:44:16.367Z,4.83
2022-08-22T21:46:43.032Z,4.30
2022-08-22T21:49:19.257Z,4.87
2022-08-22T21:51:46.094Z,4.80
2022-08-22T21:54:24.945Z,4.40
2022-08-22T21:56:59.329Z,5.13
2022-08-22T21:59:51.133Z,4.73
2022-08-22T22:02:24.893Z,4.93
2022-08-22T22:04:54.091Z,5.33
2022-08-22T22:07:20.609Z,5.03
2022-08-22T22:09:52.989Z,4.53
2022-08-22T22:12:22.139Z,4.57
2022-08-22T22:14:49.458Z,5.20
2022-08-22T22:17:16.650Z,5.40
2022-08-22T22:19:43.191Z,5.90
2022-08-22T22:22:09.759Z,5.50
2022-08-22T22:24:36.346Z,7.27
2022-08-22T22:27:03.062Z,5.10
2022-08-22T22:29:29.625Z,4.97
2022-08-22T22:31:56.188Z,6.50
2022-08-22T22:34:23.141Z,5.20
2022-08-22T22:36:49.642Z,5.70
2022-08-22T22:39:16.202Z,6.00
2022-08-22T22:41:42.703Z,6.00
2022-08-22T22:44:09.265Z,7.33
2022-08-22T22:46:35.794Z,6.40
2022-08-22T22:49:02.337Z,6.30
2022-08-22T22:51:28.907Z,7.40
2022-08-22T22:53:55.964Z,6.40
2022-08-22T22:56:23.208Z,7.17
2022-08-22T22:59:00.691Z,6.03
2022-08-22T23:01:39.274Z,6.97
2022-08-22T23:04:07.624Z,6.27
2022-08-22T23:06:34.512Z,6.70
2022-08-22T23:09:01.129Z,6.70
2022-08-22T23:11:29.207Z,6.77
2022-08-22T23:13:56.012Z,6.23
2022-08-22T23:16:26.961Z,5.93
2022-08-22T23:18:53.597Z,6.30
2022-08-22T23:21:22.261Z,5.90
2022-08-22T23:23:49.395Z,6.43
2022-08-22T23:26:16.025Z,6.93
2022-08-22T23:28:42.637Z,6.37
2022-08-22T23:31:10.699Z,6.47
2022-08-22T23:33:37.221Z,6.73
2022-08-22T23:36:09.294Z,7.00
2022-08-22T23:38:35.843Z,6.90
2022-08-22T23:41:10.013Z,6.90
2022-08-22T23:43:36.800Z,7.50
2022-08-22T23:46:03.492Z,7.53
2022-08-22T23:48:30.099Z,6.40
2022-08-22T23:50:56.636Z,7.70
2022-08-22T23:53:23.181Z,7.10
2022-08-22T23:55:49.735Z,7.70
2022-08-22T23:58:16.607Z,7.10
